Tiempo atmosférico en la estación meteorológica de Ceuta, Ceuta (87 m.)

Fecha
DESCASC
Temp. máxima en grados centígrados (hora)
DESCASC
Temp. mínima en grados centígrados (hora)
DESCASC
Temp. media en grados centígrados
DESCASC
Racha de viento máxima en m/sg (hora)
DESCASC
Velocidad máxima media en intervalos de 10 minutos(hora)
DESCASC
Precipitaciones diarias en mm
DESCASC
Precipitaciones de 00:00 a 06:00 en mm
DESCASC
Precipitaciones de 06:00 a 12:00 en mm
DESCASC
Precipitaciones de 12:00 a 18:00 en mm
DESCASC
Precipitaciones de 18:00 a 24:00 en mm
DESCASC
22-10-2017 23.8 (17:00) 18.3 (08:10) 21 4.17 (17:40) 2.78 (18:00) 0 0 0 0 0
21-10-2017 25.8 (15:20) 18 (08:30) 21.9 4.72 (16:40) 3.33 (16:40) 0 0 0 0 0
20-10-2017 25.1 (16:50) 18.8 (07:10) 21.9 10.28 (01:20) 4.17 (01:30) 0 0 0 0 0
19-10-2017 21.5 (14:30) 18.8 (00:00) 20.1 18.06 (08:10) 7.5 (08:10) 8.4 3.2 4 1.2 0
18-10-2017 22.7 (15:30) 18.1 (00:00) 20.4 10.83 (08:10) 5 (15:50) 13.6 0 8 4.8 0.8
17-10-2017 22.1 (16:20) 19.2 (00:00) 20.7 6.11 (04:50) 3.61 (03:40) 0 0 0 0 0
16-10-2017 23.8 (12:30) 19.3 (00:00) 21.5 9.17 (12:40) 5.28 (11:50) 0 0 0 0 0
15-10-2017 23.2 (14:20) 20 (00:00) 21.6 8.06 (15:50) 4.72 (16:00) 0 0 0 0 0
14-10-2017 23.4 (16:00) 18.7 (00:00) 21.1 5.83 (16:00) 3.89 (15:50) 0 0 0 0 0
13-10-2017 24.9 (16:40) 19.1 (00:00) 22 5 (02:50) 3.33 (02:50) 0 0 0 0 0
12-10-2017 24.5 (15:40) 19.6 (00:00) 22.1 6.67 (17:40) 4.17 (16:00) 0 0 0 0 0
11-10-2017 24.4 (15:10) 19.8 (00:00) 22.1 8.33 (23:30) 5 (23:30) 0.2 0 0 0 0.2
10-10-2017 24.4 (13:20) 18.7 (00:00) 21.6 6.39 (15:50) 4.17 (16:00) 0 0 0 0 0
09-10-2017 23.4 (13:30) 19 (00:00) 21.2 4.72 (15:10) 3.33 (19:00) 0 0 0 0 0
08-10-2017 24.7 (15:30) 19.5 (00:00) 22.1 8.33 (15:10) 5 (12:50) 0 0 0 0 0
07-10-2017 24.5 (16:20) 18.7 (00:00) 21.6 8.33 (18:10) 5 (17:00) 0 0 0 0 0
06-10-2017 25.1 (16:50) 18.2 (00:00) 21.7 5.83 (11:20) 3.89 (11:40) 0 0 0 0 0
05-10-2017 24.8 (15:20) 20.1 (00:00) 22.4 12.78 (14:40) 5.83 (02:50) 0 0 0 0 0
04-10-2017 23.5 (12:40) 20.2 (00:00) 21.9 11.11 (13:40) 6.11 (12:10) 0 0 0 0 0
03-10-2017 24 (13:40) 20 (00:00) 22 10.83 (12:00) 6.11 (12:00) 0 0 0 0 0
02-10-2017 23.8 (17:20) 19.9 (00:00) 21.8 10 (18:10) 6.11 (13:40) 0 0 0 0 0
01-10-2017 23.6 (14:40) 19.4 (00:00) 21.5 6.94 (17:50) 4.44 (16:30) 0 0 0 0 0
30-09-2017 24.2 (12:30) 20.2 (00:00) 22.2 7.22 (13:00) 4.72 (13:10) 0 0 0 0 0
29-09-2017 24.1 (16:40) 19.7 (00:00) 21.9 8.61 (16:50) 5.56 (17:00) 0 0 0 0 0
28-09-2017 23.5 (12:30) 19.8 (00:00) 21.6 10 (11:30) 5.83 (12:30) 0.8 0.8 0 0 0
27-09-2017 21.4 (14:00) 18.7 (00:00) 20.1 8.61 (13:00) 5.83 (14:20) 0.6 0 0.6 0 0
26-09-2017 29.8 (16:50) 20.5 (00:00) 25.1 9.72 (01:00) 4.72 (01:00) 0 0 0 0 0
25-09-2017 27.2 (14:30) 19.2 (00:00) 23.2 6.94 (20:50) 2.78 (19:30) 0 0 0 0 0
24-09-2017 25.3 (15:10) 20.7 (00:00) 23 8.33 (13:20) 4.72 (13:30) 0 0 0 0 0
23-09-2017 23.7 (14:40) 19.7 (00:00) 21.7 8.06 (14:20) 5 (13:40) 0 0 0 0 0

Gráficas

Temp. máximas Temp. mínimas Temp. medias Precipitaciones Rachas de viento máximas Velocidades máximas media en intervalos de 10 minutos

Datos horarios

Fecha y hora oficial Temperatura (ºC) Velocidad del viento (km/h) Dirección del viento Racha (km/h) Dirección de racha Precipitación (mm) Presión (hPa) Tendencia (hPa) Humedad (%)
2017-10-22 23:00:00 19 2 Norte 6 Norte 0 -- -- 98
2017-10-22 22:00:00 19.3 5 Norte 8 Este 0 -- -- 97
2017-10-22 21:00:00 20.6 4 Sudeste 9 Sur 0 -- -- 89
2017-10-22 20:00:00 20.8 5 Sur 11 Sur 0 -- -- 87
2017-10-22 19:00:00 21.8 6 Sudeste 15 Sur 0 -- -- 84
2017-10-22 18:00:00 23.2 10 Sur 15 Sudeste 0 -- -- 79
2017-10-22 17:00:00 23.6 7 Sudeste 14 Sur 0 -- -- 72
2017-10-22 16:00:00 23 7 Nordeste 12 Nordeste 0 -- -- 76
2017-10-22 15:00:00 22.8 8 Nordeste 13 Norte 0 -- -- 65
2017-10-22 14:00:00 22 7 Nordeste 12 Nordeste 0 -- -- 72
2017-10-22 13:00:00 22.2 8 Nordeste 14 Norte 0 -- -- 71
2017-10-22 12:00:00 22.9 6 Nordeste 10 Nordeste 0 -- -- 65
2017-10-22 11:00:00 21.6 4 Nordeste 6 Este 0 -- -- 83
2017-10-22 10:00:00 21.1 3 Nordeste 4 Este 0 -- -- 88
2017-10-22 09:00:00 18.7 2 Norte 5 Noroeste 0 -- -- 93
2017-10-22 08:00:00 18.4 3 Noroeste 7 Sudoeste 0 -- -- 86
2017-10-22 07:00:00 18.9 4 Sudoeste 6 Sur 0 -- -- 87
2017-10-22 06:00:00 19 2 Este 7 Sudoeste 0 -- -- 85
2017-10-22 05:00:00 19.4 4 Sudoeste 7 Sudoeste 0 -- -- 82
2017-10-22 04:00:00 19.6 3 Sudoeste 8 Oeste 0 -- -- 82
2017-10-22 03:00:00 19.8 5 Sudoeste 8 Oeste 0 -- -- 78
2017-10-22 02:00:00 19.9 5 Sudoeste 12 Sur 0 -- -- 81
2017-10-22 01:00:00 20.3 8 Sur 10 Sur 0 -- -- 76
2017-10-22 00:00:00 20.7 6 Sudoeste 10 Sur 0 -- -- 70
2017-10-21 23:00:00 21.3 5 Sudoeste 8 Sur 0 -- -- 68
2017-10-21 22:00:00 21.8 5 Sudoeste 6 Sudoeste 0 -- -- 62
2017-10-21 21:00:00 21.1 2 Oeste 6 Oeste 0 -- -- 66
2017-10-21 20:00:00 22.2 5 Sudoeste 11 Sudoeste 0 -- -- 64
2017-10-21 19:00:00 23.5 9 Sur 13 Sur 0 -- -- 59
2017-10-21 18:00:00 25 9 Sur 13 Sur 0 -- -- 53
2017-10-21 17:00:00 24.8 10 Sur 17 Sur 0 -- -- 57
2017-10-21 16:00:00 24.4 10 Sur 14 Sur 0 -- -- 63
2017-10-21 15:00:00 25.3 5 Sur 12 Sudeste 0 -- -- 53
2017-10-21 14:00:00 24.5 9 Sudeste 13 Sudeste 0 -- -- 59
2017-10-21 13:00:00 24.7 4 Sudeste 9 Este 0 -- -- 61
2017-10-21 12:00:00 22.1 6 Nordeste 10 Nordeste 0 -- -- 73
2017-10-21 11:00:00 21.5 3 Nordeste 10 Norte 0 -- -- 71
2017-10-21 10:00:00 20.2 7 Norte 15 Norte 0 -- -- 75
2017-10-21 09:00:00 18.4 5 Norte 9 Norte 0 -- -- 82
2017-10-21 08:00:00 18.3 5 Noroeste 8 Noroeste 0 -- -- 80
2017-10-21 07:00:00 18.3 5 Norte 11 Norte 0 -- -- 83
2017-10-21 06:00:00 18.8 6 Noroeste 9 Noroeste 0 -- -- 80
2017-10-21 05:00:00 19.2 2 Oeste 5 Sudoeste 0 -- -- 79
2017-10-21 04:00:00 19.5 2 Oeste 6 Oeste 0 -- -- 79
2017-10-21 03:00:00 19.7 5 Oeste 9 Oeste 0 -- -- 81
2017-10-21 02:00:00 19.8 2 Este 8 Sudoeste 0 -- -- 81
2017-10-21 01:00:00 20.5 5 Sudoeste 7 Oeste 0 -- -- 79
2017-10-21 00:00:00 20.9 3 Sur 8 Nordeste 0 -- -- 77
2017-10-20 23:00:00 20.8 2 Sur 9 Sudoeste 0 -- -- 78
2017-10-20 22:00:00 20.8 7 Sudoeste 12 Oeste 0 -- -- 77
2017-10-20 21:00:00 20.7 7 Oeste 12 Sudoeste 0 -- -- 73
2017-10-20 20:00:00 21.6 6 Sudoeste 11 Sudoeste 0 -- -- 70
2017-10-20 19:00:00 23.1 6 Sudoeste 18 Sudoeste 0 -- -- 64
2017-10-20 18:00:00 24.9 6 Sudoeste 18 Oeste 0 -- -- 58
2017-10-20 17:00:00 24.8 9 Sudoeste 21 Sudoeste 0 -- -- 59
2017-10-20 16:00:00 24.5 9 Sudoeste 26 Oeste 0 -- -- 60
2017-10-20 15:00:00 24.4 10 Sudoeste 24 Sudoeste 0 -- -- 55
2017-10-20 14:00:00 24 12 Sudoeste 27 Sudoeste 0 -- -- 58
2017-10-20 13:00:00 24 9 Oeste 26 Oeste 0 -- -- 61
2017-10-20 12:00:00 22.7 10 Sudoeste 21 Sudoeste 0 -- -- 65
2017-10-20 11:00:00 22.2 7 Oeste 18 Noroeste 0 -- -- 68
2017-10-20 10:00:00 21 4 Este 14 Sudoeste 0 -- -- 74
2017-10-20 09:00:00 19.3 8 Oeste 24 Noroeste 0 -- -- 81
2017-10-20 08:00:00 19 8 Oeste 22 Oeste 0 -- -- 84
2017-10-20 07:00:00 19 6 Oeste 16 Oeste 0 -- -- 84
2017-10-20 06:00:00 19.4 6 Oeste 15 Oeste 0 -- -- 83
2017-10-20 05:00:00 19.4 6 Oeste 15 Sudoeste 0 -- -- 83
2017-10-20 04:00:00 19.8 4 Oeste 27 Oeste 0 -- -- 82
2017-10-20 03:00:00 19.8 11 Oeste 28 Oeste 0 -- -- 82
2017-10-20 02:00:00 19.7 12 Oeste 37 Oeste 0 -- -- 82
2017-10-20 01:00:00 19.7 15 Oeste 33 Oeste 0 -- -- 81
2017-10-20 00:00:00 19.6 11 Oeste 31 Noroeste 0 -- -- 83
2017-10-19 23:00:00 19.6 11 Oeste 30 Oeste 0 -- -- 82
2017-10-19 22:00:00 19.6 8 Oeste 26 Oeste 0 -- -- 81
2017-10-19 21:00:00 19.8 10 Sudoeste 30 Sur 0 -- -- 79
2017-10-19 20:00:00 20 8 Sudoeste 31 Oeste 0 -- -- 81
2017-10-19 19:00:00 20 9 Oeste 36 Oeste 0 -- -- 80
2017-10-19 18:00:00 20.5 14 Noroeste 38 Oeste 0 -- -- 77
2017-10-19 17:00:00 21.1 17 Noroeste 45 Noroeste 0 -- -- 76
2017-10-19 16:00:00 19.5 14 Oeste 36 Noroeste 1.2 -- -- 87
2017-10-19 15:00:00 21.4 14 Oeste 38 Oeste 0 -- -- 75
2017-10-19 14:00:00 20.9 11 Oeste 30 Noroeste 0 -- -- 74
2017-10-19 13:00:00 20.2 9 Noroeste 26 Noroeste 0 -- -- 78
2017-10-19 12:00:00 19.6 13 Noroeste 39 Noroeste 0.2 -- -- 82
2017-10-19 11:00:00 19.8 10 Noroeste 39 Oeste 0 -- -- 80
2017-10-19 10:00:00 19.3 21 Noroeste 50 Noroeste 0 -- -- 84
2017-10-19 09:00:00 19.1 22 Noroeste 65 Noroeste 0 -- -- 81
2017-10-19 08:00:00 19.4 25 Noroeste 52 Noroeste 1.2 -- -- 88
2017-10-19 07:00:00 19.2 15 Oeste 44 Noroeste 2.6 -- -- 92
2017-10-19 06:00:00 20.8 15 Oeste 46 Sudoeste 0 -- -- 81
2017-10-19 05:00:00 20.5 15 Oeste 38 Sudoeste 0 -- -- 84
2017-10-19 04:00:00 20 8 Sudoeste 27 Oeste 0 -- -- 84
2017-10-19 03:00:00 19.8 13 Oeste 38 Oeste 0 -- -- 86
2017-10-19 02:00:00 19.2 19 Oeste 43 Noroeste 3.2 -- -- 89
2017-10-19 01:00:00 20 13 Oeste 37 Oeste 0 -- -- 85
2017-10-19 00:00:00 19.5 11 Sudoeste 24 Oeste 0 -- -- 87
2017-10-18 23:00:00 19.4 10 Sudoeste 25 Sudoeste 0 -- -- 87
2017-10-18 22:00:00 19.2 9 Sudoeste 23 Oeste 0 -- -- 87
2017-10-18 21:00:00 18.9 9 Sudoeste 23 Oeste 0 -- -- 88
2017-10-18 20:00:00 18.5 10 Oeste 29 Noroeste 0.4 -- -- 91
2017-10-18 19:00:00 18.4 10 Sudoeste 23 Oeste 0.4 -- -- 87
2017-10-18 18:00:00 19 8 Sudoeste 29 Oeste 2.6 1004.7 -0.6 90
2017-10-18 17:00:00 20.7 13 Oeste 33 Oeste 0 1004.7 -1.2 71
2017-10-18 16:00:00 22.4 15 Oeste 35 Sudoeste 0 1004.7 -1.3 66
2017-10-18 15:00:00 21.8 10 Oeste 29 Sudoeste 0 1005.3 -0.9 76
2017-10-18 14:00:00 19 8 Sudoeste 28 Sudoeste 2.2 1005.9 -0.2 90
2017-10-18 13:00:00 20.3 12 Sudoeste 30 Sur 0 1006 0.3 80
2017-10-18 12:00:00 19.6 12 Sudoeste 32 Sudoeste 0 1006.2 1.6 83
2017-10-18 11:00:00 18.3 9 Sudoeste 34 Oeste 0.8 1006.1 1.2 89
2017-10-18 10:00:00 19.7 12 Oeste 31 Oeste 0.2 1005.7 1 83
2017-10-18 09:00:00 19.7 14 Sudoeste 39 Sudoeste 0.4 1004.6 -0.7 88
2017-10-18 08:00:00 19.7 6 Sudoeste 31 Oeste 6.6 1004.9 -0.9 93
2017-10-18 07:00:00 20.4 8 Sudoeste 17 Sudoeste 0 1004.7 -2 86
2017-10-18 06:00:00 19.3 5 Sur 9 Sudoeste 0 1005.3 -2.3 98
2017-10-18 05:00:00 19.2 4 Sur 7 Sur 0 1005.8 -1.7 98
2017-10-18 04:00:00 19.4 4 Norte 7 Nordeste 0 1006.7 -1.6 96
2017-10-18 03:00:00 20.2 3 Oeste 7 Sur 0 1007.6 -1.1 93
2017-10-18 02:00:00 20.4 5 Sur 9 Sudoeste 0 1007.5 -2 93
2017-10-18 01:00:00 20.5 4 Sudoeste 12 Sur 0 1008.3 -0.9 95
2017-10-18 00:00:00 20.4 7 Sur 12 Sur 0 1008.7 -0.5 97
2017-10-17 23:00:00 20.4 5 Sudeste 11 Sudeste 0 1009.5 0.3 97
2017-10-17 22:00:00 20.4 5 Sur 9 Sudeste 0 1009.2 -0.1 97
2017-10-17 21:00:00 20.4 5 Sur 10 Sur 0 1009.2 -0.5 97
2017-10-17 20:00:00 20.7 4 Sudeste 11 Este 0 1009.2 -0.7 94
2017-10-17 19:00:00 21.1 6 Sudeste 12 Sudeste 0 1009.3 -1 92
2017-10-17 18:00:00 21.4 8 Sudeste 15 Sudeste 0 1009.7 -1.1 90
2017-10-17 17:00:00 21.9 10 Este 17 Este 0 1009.9 -1.7 89
2017-10-17 16:00:00 22 8 Sudeste 16 Sur 0 1010.3 -1.8 89
2017-10-17 15:00:00 21.7 9 Sudeste 21 Sudeste 0 1010.8 -1.7 91
2017-10-17 14:00:00 21.3 10 Sudeste 20 Sur 0 1011.6 -1.2 94
2017-10-17 13:00:00 21.2 11 Sudeste 19 Este 0 1012.1 -0.6 94
2017-10-17 12:00:00 21.1 9 Sudeste 17 Sudeste 0 1012.5 0.3 93
2017-10-17 11:00:00 20.8 12 Este 20 Este 0 1012.8 0.8 95
2017-10-17 10:00:00 20.7 11 Este 19 Este 0 1012.7 0.9 95
2017-10-17 09:00:00 19.9 6 Este 15 Este 0 1012.2 0.3 99
2017-10-17 08:00:00 19.8 6 Este 19 Este 0 1012 -0.2 98
2017-10-17 07:00:00 19.9 7 Este 15 Este 0 1011.8 -1.2 97
2017-10-17 06:00:00 19.8 7 Este 17 Este 0 1011.9 -1.8 98
2017-10-17 05:00:00 19.5 9 Este 22 Este 0 1012.2 -1.6 97
2017-10-17 04:00:00 19.2 12 Nordeste 20 Nordeste 0 1013 -1.1 96
2017-10-17 03:00:00 19.3 9 Nordeste 18 Este 0 1013.7 -0.6 97
2017-10-17 02:00:00 19.5 12 Nordeste 18 Nordeste 0 1013.8 -0.3 97
2017-10-17 01:00:00 19.5 6 Nordeste 16 Este 0 1014.1 0.2 98
2017-10-17 00:00:00 20.5 8 Sudeste 18 Este 0 1014.3 0.6 95
2017-10-16 23:00:00 20.5 8 Sudeste 16 Sudeste 0 1014.1 0.5 95
2017-10-16 22:00:00 20.6 6 Sudeste 15 Sudeste 0 1013.9 0.3 94
2017-10-16 21:00:00 20.7 9 Este 21 Este 0 1013.7 0.4 93
2017-10-16 20:00:00 20.7 11 Este 21 Sudeste 0 1013.6 0.1 92
2017-10-16 19:00:00 20.6 5 Nordeste 21 Este 0 1013.6 0 91
2017-10-16 18:00:00 21.8 13 Este 26 Este 0 1013.3 -0.7 86
2017-10-16 17:00:00 22.1 10 Este 26 Este 0 1013.5 -1 85
2017-10-16 16:00:00 22.6 15 Este 27 Este 0 1013.6 -1.2 81
2017-10-16 15:00:00 23.1 16 Este 29 Este 0 1014 -0.8 80
2017-10-16 14:00:00 23.1 14 Este 30 Este 0 1014.5 -0.1 81
2017-10-16 13:00:00 23.6 14 Este 33 Este 0 1014.8 0.7 78
2017-10-16 12:00:00 22.8 14 Este 32 Este 0 1014.8 1.6 81
2017-10-16 11:00:00 22.2 16 Este 27 Este 0 1014.6 1.9 82
2017-10-16 10:00:00 21.3 10 Este 22 Este 0 1014.1 1.6 88
2017-10-16 09:00:00 20.7 13 Este 23 Este 0 1013.2 0.6 92
2017-10-16 08:00:00 20.4 13 Este 28 Este 0 1012.7 0.3 93
2017-10-16 07:00:00 20.4 13 Este 20 Este 0 1012.5 -0.4 95
2017-10-16 06:00:00 19.7 10 Nordeste 22 Este 0 1012.6 -0.3 99
2017-10-16 05:00:00 19.4 12 Este 25 Nordeste 0 1012.4 -0.8 100
2017-10-16 04:00:00 19.5 8 Nordeste 20 Nordeste 0 1012.9 -0.3 99
2017-10-16 03:00:00 19.5 9 Nordeste 17 Nordeste 0 1012.9 -0.1 99
2017-10-16 02:00:00 19.4 9 Nordeste 19 Este 0 1013.2 0.2 99
2017-10-16 01:00:00 19.5 8 Nordeste 14 Nordeste 0 1013.2 0.6 100
2017-10-16 00:00:00 20 5 Nordeste 20 Este 0 1013 0.6 95
2017-10-15 23:00:00 20.7 12 Este 21 Sudeste 0 1013 1 96
2017-10-15 22:00:00 20.7 11 Este 20 Este 0 1012.6 0.7 97
2017-10-15 21:00:00 20.9 10 Sudeste 18 Este 0 1012.4 0.4 96
2017-10-15 20:00:00 21.2 11 Este 22 Sudeste 0 1012 -0.2 94
2017-10-15 19:00:00 21.7 17 Este 28 Este 0 1011.9 -0.4 92
2017-10-15 18:00:00 21.7 8 Sudeste 26 Sudeste 0 1012 -0.9 92
2017-10-15 17:00:00 22.4 12 Este 26 Este 0 1012.2 -1.4 90
2017-10-15 16:00:00 22.4 17 Nordeste 29 Este 0 1012.3 -1.8 89
2017-10-15 15:00:00 22.1 7 Nordeste 14 Sudeste 0 1012.9 -1.4 87
2017-10-15 14:00:00 23 7 Sudeste 14 Sudeste 0 1013.6 -0.7 78
2017-10-15 13:00:00 22.1 10 Sudeste 16 Sudeste 0 1014.1 0.2 83
2017-10-15 12:00:00 22.1 9 Sudeste 16 Sur 0 1014.3 0.8 84
2017-10-15 11:00:00 21.3 7 Sur 14 Sur 0 1014.3 0.9 89
2017-10-15 10:00:00 21 6 Sudeste 16 Sudeste 0 1013.9 0.6 93
2017-10-15 09:00:00 20.7 11 Sudeste 19 Sudeste 0 1013.5 0.4 93
2017-10-15 08:00:00 20.4 6 Nordeste 14 Nordeste 0 1013.4 0.3 98
2017-10-15 07:00:00 20.4 9 Nordeste 20 Nordeste 0 1013.3 0 99
2017-10-15 06:00:00 20.4 13 Este 22 Este 0 1013.1 -0.5 99
2017-10-15 05:00:00 20.3 12 Este 21 Este 0 1013.1 -0.7 100
2017-10-15 04:00:00 20.3 10 Nordeste 18 Nordeste 0 1013.3 -0.6 99
2017-10-15 03:00:00 20.6 9 Este 18 Este 0 1013.6 -0.4 98
2017-10-15 02:00:00 20.6 9 Nordeste 14 Este 0 1013.8 -0.2 99
2017-10-15 01:00:00 20.3 7 Este 10 Nordeste 0 1013.9 0.1 100
2017-10-15 00:00:00 20.5 7 Sur 11 Sur 0 1014 0.2 100
2017-10-14 23:00:00 20.5 2 Oeste 9 Sur 0 1014 0.6 99
2017-10-14 22:00:00 20.4 5 Sur 10 Sur 0 1013.8 0.9 98
2017-10-14 21:00:00 20 5 Sudoeste 8 Sudoeste 0 1013.8 1 95
2017-10-14 20:00:00 20.6 6 Sur 12 Sur 0 1013.4 0.3 92
2017-10-14 19:00:00 20.9 5 Sur 14 Sur 0 1012.9 0 90
2017-10-14 18:00:00 21.6 9 Sur 16 Sur 0 1012.8 -0.8 89
2017-10-14 17:00:00 22.6 8 Sudeste 18 Sur 0 1013.1 -1.4 83
2017-10-14 16:00:00 23.4 13 Sur 21 Sur 0 1012.9 -1.7 80
2017-10-14 15:00:00 22.7 11 Sur 14 Sur 0 1013.6 -0.9 83
2017-10-14 14:00:00 21.2 8 Nordeste 19 Norte 0 1014.5 0.2 91
2017-10-14 13:00:00 22.5 8 Sudeste 19 Sur 0 1014.6 0.9 83
2017-10-14 12:00:00 21.2 10 Sur 18 Sur 0 1014.5 1.6 89
2017-10-14 11:00:00 20.5 10 Sur 16 Sur 0 1014.3 1.4 91
2017-10-14 10:00:00 19.7 9 Sur 19 Sudoeste 0 1013.7 1.1 93
2017-10-14 09:00:00 19.1 13 Sur 19 Sur 0 1012.9 0.4 97
2017-10-14 08:00:00 18.8 10 Sudoeste 17 Sur 0 1012.9 0.2 97
2017-10-14 07:00:00 19 5 Sur 11 Sudoeste 0 1012.6 -0.4 96
2017-10-14 06:00:00 19.2 2 Sur 7 Sur 0 1012.5 -0.8 99
2017-10-14 05:00:00 19.3 4 Sur 9 Sudoeste 0 1012.7 -0.9 100
2017-10-14 04:00:00 19.2 7 Sur 14 Sur 0 1013 -0.7 99
2017-10-14 03:00:00 19.4 10 Sur 15 Sur 0 1013.3 -0.6 97
2017-10-14 02:00:00 19 11 Sur 14 Sur 0 1013.6 -0.5 95
2017-10-14 01:00:00 20.3 6 Sudoeste 10 Sudoeste 0 1013.7 -0.2 91
2017-10-14 00:00:00 20.2 7 Sur 11 Sudoeste 0 1013.9 0.2 92
2017-10-13 23:00:00 20.2 2 Sudoeste 10 Sudoeste 0 1014.1 0.6 93
2017-10-13 22:00:00 20.5 5 Sur 10 Sur 0 1013.9 0.6 92
2017-10-13 21:00:00 20.9 7 Sur 12 Sudoeste 0 1013.7 0.4 91
2017-10-13 20:00:00 21.2 6 Sur 12 Sudeste 0 1013.5 -0.1 89
2017-10-13 19:00:00 21.9 6 Sur 11 Sur 0 1013.3 -0.6 87
2017-10-13 18:00:00 23.6 7 Sur 12 Sudeste 0 1013.3 -1.1 79
2017-10-13 17:00:00 23.4 8 Norte 14 Norte 0 1013.6 -1.1 76
2017-10-13 16:00:00 24.7 9 Sudeste 15 Sudeste 0 1013.9 -1.7 75
2017-10-13 15:00:00 23.3 7 Sur 17 Sur 0 1014.4 -1.5 82
2017-10-13 14:00:00 22.9 9 Sur 18 Sur 0 1014.7 -0.8 81
2017-10-13 13:00:00 24.1 7 Sudeste 14 Nordeste 0 1015.6 1 77
2017-10-13 12:00:00 23.2 6 Nordeste 13 Sudeste 0 1015.9 1.3 78
2017-10-13 11:00:00 22.2 6 Sudeste 11 Este 0 1015.5 1.3 86
2017-10-13 10:00:00 20.9 6 Sur 12 Sur 0 1014.6 0.5 90
2017-10-13 09:00:00 19.9 5 Sudoeste 9 Sudeste 0 1014.6 0.7 95
2017-10-13 08:00:00 20 7 Sur 12 Sudoeste 0 1014.2 0.1 98
2017-10-13 07:00:00 20 4 Sudoeste 7 Sudoeste 0 1014.1 -0.2 100
2017-10-13 06:00:00 19.6 3 Sudoeste 12 Norte 0 1013.9 -1.2 100
2017-10-13 05:00:00 19.5 6 Norte 13 Sur 0 1014.1 -0.6 96
2017-10-13 04:00:00 20.4 6 Sur 14 Sur 0 1014.3 -0.5 96
2017-10-13 03:00:00 20.6 6 Noroeste 18 Sur 0 1015.1 0.4 97
2017-10-13 02:00:00 20.5 6 Sudeste 15 Sudeste 0 1014.7 0 97
2017-10-13 01:00:00 20.5 8 Sudeste 13 Sudeste 0 1014.8 0.2 100
2017-10-13 00:00:00 20.4 7 Sudeste 10 Sudeste 0 1014.7 0.4 100
2017-10-12 23:00:00 20.5 5 Sur 12 Sudeste 0 1014.7 0.3 100
2017-10-12 22:00:00 20.7 6 Sudeste 11 Sudeste 0 1014.6 0.4 97
2017-10-12 21:00:00 20.9 7 Sur 11 Sur 0 1014.3 0 95
2017-10-12 20:00:00 21.4 9 Sur 19 Sur 0 1014.4 0 92
2017-10-12 19:00:00 21.8 14 Sur 23 Sur 0 1014.2 -0.5 89
2017-10-12 18:00:00 22.3 11 Sudeste 24 Sudeste 0 1014.3 -0.6 85
2017-10-12 17:00:00 23.6 15 Este 23 Este 0 1014.4 -0.7 76
2017-10-12 16:00:00 23.4 15 Nordeste 23 Nordeste 0 1014.7 -0.8 74
2017-10-12 15:00:00 23.8 11 Este 21 Este 0 1014.9 -0.1 79
2017-10-12 14:00:00 23.1 9 Este 22 Nordeste 0 1015.1 0.1 84
2017-10-12 13:00:00 22 9 Nordeste 20 Sur 0 1015.5 1 87
2017-10-12 12:00:00 22.1 12 Sudeste 22 Este 0 1015 1.5 91
2017-10-12 11:00:00 20.9 11 Este 21 Este 0 1015 1.5 96
2017-10-12 10:00:00 20.2 8 Nordeste 15 Este 0 1014.5 1.9 99
2017-10-12 09:00:00 20.3 11 Sur 18 Sur 0 1013.5 0.2 100
2017-10-12 08:00:00 20.4 2 Sudeste 21 Sur 0 1013.5 0.2 99
2017-10-12 07:00:00 20.1 12 Sur 20 Sudoeste 0 1012.6 -0.2 100
2017-10-12 06:00:00 19.7 5 Norte 19 Sudeste 0 1013.3 0.7 99
2017-10-12 05:00:00 19.9 6 Norte 14 Norte 0 1013.3 -0.2 100
2017-10-12 04:00:00 20 3 Sudoeste 14 Sur 0 1012.8 -0.8 97
2017-10-12 03:00:00 20 8 Sur 20 Sur 0 1012.6 -0.5 97
2017-10-12 02:00:00 19.9 10 Norte 21 Nordeste 0 1013.5 0.4 97
2017-10-12 01:00:00 20.6 4 Sudeste 19 Sur 0 1013.6 -0.5 96
2017-10-12 00:00:00 20.8 16 Sur 30 Sur 0 1013.1 1.2 95
2017-10-11 23:00:00 20.7 11 Sur 23 Sur 0 1013.1 1.7 94
2017-10-11 22:00:00 21.1 6 Sur 26 Sur 0.2 1014.1 2.5 89
2017-10-11 21:00:00 20.9 17 Sur 28 Sur 0 1011.9 0.1 92
2017-10-11 20:00:00 21.1 16 Este 29 Este 0 1011.4 -0.2 92
2017-10-11 19:00:00 21.6 9 Sur 23 Sudeste 0 1011.6 -0.1 90
2017-10-11 18:00:00 22.1 14 Este 23 Este 0 1011.8 -0.1 87
2017-10-11 17:00:00 23 14 Este 25 Este 0 1011.6 -0.8 81
2017-10-11 16:00:00 23.7 13 Este 21 Sudeste 0 1011.7 -1 76
2017-10-11 15:00:00 24.2 12 Este 20 Este 0 1011.9 -0.6 74
2017-10-11 14:00:00 24 13 Este 21 Este 0 1012.4 0.3 76
2017-10-11 13:00:00 22.9 14 Este 22 Sudeste 0 1012.7 0.8 81
2017-10-11 12:00:00 23.4 12 Este 22 Sudeste 0 1012.5 1.4 78
2017-10-11 11:00:00 22.3 9 Sudeste 17 Este 0 1012.1 1.5 84
2017-10-11 10:00:00 20.7 8 Sur 13 Sur 0 1011.9 1.4 95
2017-10-11 09:00:00 20 5 Sur 10 Sur 0 1011.1 0.5 97
2017-10-11 08:00:00 19.9 5 Sur 10 Sur 0 1010.6 0.2 97
2017-10-11 07:00:00 19.8 5 Sur 10 Sur 0 1010.5 -0.1 96
2017-10-11 06:00:00 20.1 8 Sur 12 Sur 0 1010.6 -0.2 95
2017-10-11 05:00:00 20 8 Sur 14 Sudeste 0 1010.4 -0.4 93
2017-10-11 04:00:00 20.3 8 Sudeste 13 Sudeste 0 1010.6 -0.3 92
2017-10-11 03:00:00 20.4 6 Sudeste 13 Sudeste 0 1010.8 -0.1 93
2017-10-11 02:00:00 20.4 8 Sur 15 Sur 0 1010.8 0.1 91
2017-10-11 01:00:00 20.5 9 Sur 15 Sur 0 1010.9 0.6 91
2017-10-11 00:00:00 20.5 10 Sur 15 Sur 0 1010.9 1.1 93
2017-10-10 23:00:00 20.5 9 Sur 17 Sudeste 0 1010.7 1.2 92
2017-10-10 22:00:00 20.4 7 Sur 12 Sur 0 1010.3 1.2 91
2017-10-10 21:00:00 20.6 8 Sur 14 Sur 0 1009.8 0.9 88
2017-10-10 20:00:00 21 9 Sur 14 Sudeste 0 1009.5 0.4 86
2017-10-10 19:00:00 21.8 9 Sudeste 19 Sur 0 1009.1 -0.2 82
2017-10-10 18:00:00 22.4 13 Sudeste 19 Sudeste 0 1008.9 -0.7 78
2017-10-10 17:00:00 23.1 11 Sudeste 23 Este 0 1009.1 -1.2 75
2017-10-10 16:00:00 22.7 15 Este 23 Este 0 1009.3 -1.4 78
2017-10-10 15:00:00 24.2 10 Este 21 Sudeste 0 1009.6 -1.1 71
2017-10-10 14:00:00 24.1 9 Sudeste 21 Este 0 1010.3 -0.2 71
2017-10-10 13:00:00 23.8 12 Este 21 Este 0 1010.7 0.6 72
2017-10-10 12:00:00 23.2 13 Este 21 Este 0 1010.7 1.2 70
2017-10-10 11:00:00 20.7 5 Nordeste 12 Nordeste 0 1010.5 1.4 92
2017-10-10 10:00:00 19.3 4 Norte 8 Noroeste 0 1010.1 1.2 98
2017-10-10 09:00:00 18.8 3 Noroeste 7 Nordeste 0 1009.5 0.9 99
2017-10-10 08:00:00 18.7 3 Norte 8 Nordeste 0 1009.1 0.4 99
2017-10-10 07:00:00 18.7 2 Noroeste 4 Sudoeste 0 1008.9 -0.1 98
2017-10-10 06:00:00 18.8 2 Oeste 5 Norte 0 1008.6 -0.5 98
2017-10-10 05:00:00 18.9 2 Norte 6 Norte 0 1008.7 -0.4 97
2017-10-10 04:00:00 19 4 Norte 7 Norte 0 1009 -0.3 94
2017-10-10 03:00:00 19.4 4 Sudoeste 10 Sudoeste 0 1009.1 -0.2 94
2017-10-10 02:00:00 19.7 6 Sudoeste 11 Sur 0 1009.1 -0.3 93
2017-10-10 01:00:00 20.2 6 Sur 14 Sudoeste 0 1009.3 0.4 91
2017-10-10 00:00:00 20.3 9 Sur 14 Sur 0 1009.3 0.6 91
2017-10-09 23:00:00 20.1 5 Sudoeste 13 Sur 0 1009.4 1 91
2017-10-09 22:00:00 20.7 7 Sur 14 Sur 0 1008.9 0.7 89
2017-10-09 21:00:00 20.9 8 Sur 17 Sur 0 1008.7 0.5 90
2017-10-09 20:00:00 21.1 10 Sur 15 Sur 0 1008.4 0.1 88
2017-10-09 19:00:00 21.7 12 Sur 17 Sur 0 1008.2 -0.4 85
2017-10-09 18:00:00 22.5 11 Sudeste 16 Sudeste 0 1008.2 -1 81
2017-10-09 17:00:00 22.7 10 Sudeste 17 Sur 0 1008.3 -1.4 81
2017-10-09 16:00:00 23.2 11 Sudeste 17 Sudeste 0 1008.6 -1.4 78
2017-10-09 15:00:00 22.9 11 Sudeste 17 Sudeste 0 1009.2 -1 80
2017-10-09 14:00:00 23.3 9 Sudeste 16 Sudeste 0 1009.7 -0.3 77
2017-10-09 13:00:00 23.1 8 Sudeste 14 Sudeste 0 1010 0.3 76
2017-10-09 12:00:00 21.6 6 Sudeste 11 Sudeste 0 1010.2 1 85
2017-10-09 11:00:00 21.3 5 Este 11 Sudeste 0 1010 1.2 87
2017-10-09 10:00:00 20.2 3 Norte 8 Norte 0 1009.7 1.1 94
2017-10-09 09:00:00 19.5 4 Norte 8 Norte 0 1009.2 0.7 97
2017-10-09 08:00:00 19.3 3 Sudoeste 6 Norte 0 1008.8 0.1 98
2017-10-09 07:00:00 19.2 3 Norte 6 Este 0 1008.6 -0.4 98
2017-10-09 06:00:00 19.6 4 Este 7 Este 0 1008.5 -0.7 98
2017-10-09 05:00:00 19.2 3 Sudoeste 6 Norte 0 1008.7 -0.5 98
2017-10-09 04:00:00 19.3 3 Norte 5 Norte 0 1009 -0.4 98
2017-10-09 03:00:00 19.2 3 Noroeste 5 Norte 0 1009.2 -0.3 97
2017-10-09 02:00:00 19.5 3 Sudoeste 13 Sur 0 1009.2 -0.1 97
2017-10-09 01:00:00 19.8 10 Sur 14 Sur 0 1009.4 0.3 97
2017-10-09 00:00:00 20.1 6 Sur 8 Sur 0 1009.5 0.6 96
2017-10-08 23:00:00 20.2 3 Sur 8 Sur 0 1009.3 0.6 94
2017-10-08 22:00:00 20.6 4 Sur 11 Sur 0 1009.1 0.7 94
2017-10-08 21:00:00 20.7 6 Sudeste 13 Sur 0 1008.9 0.4 93
2017-10-08 20:00:00 21 8 Sudeste 18 Sudeste 0 1008.7 0 93
2017-10-08 19:00:00 21.5 12 Sudeste 23 Este 0 1008.4 -0.7 89
2017-10-08 18:00:00 22.2 14 Este 28 Este 0 1008.5 -1 85
2017-10-08 17:00:00 23.1 16 Este 27 Este 0 1008.7 -1.5 80
2017-10-08 16:00:00 24.4 14 Este 30 Este 0 1009.1 -1.5 74
2017-10-08 15:00:00 23.6 14 Nordeste 27 Este 0 1009.5 -1.1 79
2017-10-08 14:00:00 23.4 15 Nordeste 27 Nordeste 0 1010.2 -0.3 79
2017-10-08 13:00:00 23.7 15 Este 28 Este 0 1010.6 0.4 77
2017-10-08 12:00:00 22.8 15 Nordeste 26 Nordeste 0 1010.6 0.8 82
2017-10-08 11:00:00 21.5 15 Nordeste 26 Este 0 1010.5 0.9 89
2017-10-08 10:00:00 21.1 13 Nordeste 21 Este 0 1010.2 0.6 92
2017-10-08 09:00:00 20 8 Este 16 Este 0 1009.8 0.3 97
2017-10-08 08:00:00 19.8 9 Este 18 Este 0 1009.6 0.1 96
2017-10-08 07:00:00 19.8 10 Este 23 Nordeste 0 1009.6 0 97
2017-10-08 06:00:00 19.6 12 Este 24 Nordeste 0 1009.5 -0.3 97
2017-10-08 05:00:00 19.5 13 Este 24 Este 0 1009.5 -0.5 96
2017-10-08 04:00:00 19.5 14 Nordeste 25 Nordeste 0 1009.6 -0.6 96
2017-10-08 03:00:00 19.8 8 Nordeste 19 Este 0 1009.8 -0.4 95
2017-10-08 02:00:00 20.4 10 Este 21 Este 0 1010 0.2 93
2017-10-08 01:00:00 20.4 12 Este 23 Este 0 1010.2 0.7 94
2017-10-08 00:00:00 20.5 11 Este 21 Este 0 1010.2 0.9 94
2017-10-07 23:00:00 20.4 10 Este 20 Este 0 1009.8 0.8 94
2017-10-07 22:00:00 20.5 10 Este 20 Sudeste 0 1009.5 0.9 93
2017-10-07 21:00:00 20.7 12 Este 21 Este 0 1009.3 0.8 92
2017-10-07 20:00:00 21 14 Este 23 Este 0 1009 0.4 90
2017-10-07 19:00:00 21.6 14 Este 30 Este 0 1008.6 -0.2 87
2017-10-07 18:00:00 22.7 15 Este 28 Este 0 1008.5 -0.8 82
2017-10-07 17:00:00 23.3 18 Este 28 Este 0 1008.6 -1.2 80
2017-10-07 16:00:00 23.7 11 Este 23 Nordeste 0 1008.8 -1.1 81
2017-10-07 15:00:00 23 15 Nordeste 25 Nordeste 0 1009.3 -0.5 84
2017-10-07 14:00:00 22.1 17 Nordeste 26 Nordeste 0 1009.8 0.5 87
2017-10-07 13:00:00 21.3 14 Nordeste 25 Nordeste 0 1009.9 1.2 89
2017-10-07 12:00:00 20.4 10 Nordeste 16 Nordeste 0 1009.8 1.8 93
2017-10-07 11:00:00 20.4 10 Nordeste 17 Nordeste 0 1009.3 1.8 93
2017-10-07 10:00:00 19.8 7 Nordeste 11 Nordeste 0 1008.7 1.8 98
2017-10-07 09:00:00 19.4 0 Calma 9 Oeste 0 1008 1.7 98
2017-10-07 08:00:00 18.7 4 Noroeste 17 Norte 0 1007.5 1.8 98
2017-10-07 07:00:00 19 7 Norte 14 Norte 0 1006.9 1.2 96
2017-10-07 06:00:00 19.1 7 Norte 11 Norte 0 1006.3 0.2 86
2017-10-07 05:00:00 20.6 3 Nordeste 12 Sur 0 1005.7 -0.7 62
2017-10-07 04:00:00 22 7 Sudoeste 10 Sudoeste 0 1005.7 -0.7 52
2017-10-07 03:00:00 21.1 3 Noroeste 8 Norte 0 1006.1 -0.5 65
2017-10-07 02:00:00 20.2 5 Norte 13 Sur 0 1006.4 -0.2 73
2017-10-07 01:00:00 22.5 10 Sur 17 Sudoeste 0 1006.4 0 47
2017-10-07 00:00:00 21.8 9 Sudoeste 11 Sur 0 1006.6 0.4 68
2017-10-06 23:00:00 21.2 3 Oeste 7 Noroeste 0 1006.6 0.3 63
2017-10-06 22:00:00 21.7 3 Noroeste 11 Sur 0 1006.4 0 62
2017-10-06 21:00:00 22.1 6 Sudoeste 11 Sur 0 1006.2 -0.3 70
2017-10-06 20:00:00 22.4 7 Sur 14 Sur 0 1006.3 -0.7 82
2017-10-06 19:00:00 23.4 9 Sur 18 Sur 0 1006.4 -1.2 73
2017-10-06 18:00:00 24.5 14 Sur 18 Sur 0 1006.5 -1.6 62
2017-10-06 17:00:00 24.7 13 Sur 18 Sur 0 1007 -1.8 64
2017-10-06 16:00:00 24.5 9 Sur 14 Sur 0 1007.6 -1.8 69
2017-10-06 15:00:00 24.6 10 Sur 14 Sur 0 1008.1 -1.4 71
2017-10-06 14:00:00 24.1 10 Sudeste 19 Sur 0 1008.8 -0.6 74
2017-10-06 13:00:00 23.3 10 Sudeste 17 Sur 0 1009.4 0.4 78
2017-10-06 12:00:00 22.5 14 Sur 21 Sur 0 1009.5 0.9 82
2017-10-06 11:00:00 21.5 11 Sur 18 Sur 0 1009.4 0.8 88
2017-10-06 10:00:00 19.6 8 Sur 14 Sur 0 1009 0.5 100
2017-10-06 09:00:00 19.3 5 Sur 9 Sur 0 1008.6 0.1 99
2017-10-06 08:00:00 19 6 Sur 11 Sur 0 1008.6 -0.1 99
2017-10-06 07:00:00 19.3 7 Sur 12 Sur 0 1008.5 -0.5 98
2017-10-06 06:00:00 19.5 5 Sur 12 Sur 0 1008.5 -1 98
2017-10-06 05:00:00 20 8 Sur 12 Sudeste 0 1008.7 -1 94
2017-10-06 04:00:00 20.4 8 Sudeste 19 Este 0 1009 -1 93
2017-10-06 03:00:00 20.5 10 Este 18 Este 0 1009.5 -0.7 94
2017-10-06 02:00:00 20.3 9 Este 18 Este 0 1009.7 -0.5 95
2017-10-06 01:00:00 20.5 8 Este 20 Este 0 1010 0.1 93
2017-10-06 00:00:00 20.8 13 Este 22 Este 0 1010.2 0.4 93
2017-10-05 23:00:00 20.4 11 Este 19 Este 0 1010.2 0.7 95
2017-10-05 22:00:00 20.4 10 Este 15 Este 0 1009.9 0.3 95
2017-10-05 21:00:00 20.6 7 Sudeste 16 Este 0 1009.8 0.2 94
2017-10-05 20:00:00 21.1 10 Sudeste 21 Sudeste 0 1009.5 -0.3 91
2017-10-05 19:00:00 21.8 13 Sudeste 25 Este 0 1009.6 -0.6 89
2017-10-05 18:00:00 22.9 17 Este 31 Este 0 1009.6 -1.2 83
2017-10-05 17:00:00 23.6 18 Este 29 Este 0 1009.8 -1.6 81
2017-10-05 16:00:00 23.1 11 Nordeste 31 Nordeste 0 1010.2 -1.6 83
2017-10-05 15:00:00 24.3 21 Este 46 Este 0 1010.8 -1.2 78
2017-10-05 14:00:00 23.5 20 Este 33 Este 0 1011.4 -0.4 81
2017-10-05 13:00:00 23.9 15 Sudeste 27 Este 0 1011.8 0.4 78
2017-10-05 12:00:00 23.6 17 Sudeste 34 Sudeste 0 1012 0.9 82
2017-10-05 11:00:00 23 16 Este 35 Este 0 1011.8 0.9 85
2017-10-05 10:00:00 21.6 19 Este 30 Este 0 1011.4 0.8 91
2017-10-05 09:00:00 20.6 14 Este 28 Este 0 1011.1 0.4 96
2017-10-05 08:00:00 20.6 19 Este 34 Este 0 1010.9 0 96
2017-10-05 07:00:00 20.6 15 Este 31 Este 0 1010.6 -0.7 96
2017-10-05 06:00:00 20.4 13 Este 26 Nordeste 0 1010.7 -1 98
2017-10-05 05:00:00 20.4 13 Este 25 Nordeste 0 1010.9 -1.1 96
2017-10-05 04:00:00 20.8 15 Este 35 Este 0 1011.3 -0.8 94
2017-10-05 03:00:00 20.8 19 Este 36 Este 0 1011.7 -0.5 94
2017-10-05 02:00:00 20.7 20 Este 34 Este 0 1012 -0.6 94
2017-10-05 01:00:00 20.7 16 Este 27 Este 0 1012.1 -0.2 96
2017-10-05 00:00:00 20.8 14 Este 28 Este 0 1012.2 0.3 94
2017-10-04 23:00:00 20.9 16 Este 28 Este 0 1012.6 1.1 93
2017-10-04 22:00:00 20.9 15 Este 27 Este 0 1012.3 0.8 93
2017-10-04 21:00:00 21.3 14 Sudeste 22 Sudeste 0 1011.9 0.5 92
2017-10-04 20:00:00 21.4 13 Sudeste 21 Este 0 1011.5 0 92
2017-10-04 19:00:00 21.7 11 Sudeste 26 Este 0 1011.5 -0.1 91
2017-10-04 18:00:00 22.5 15 Este 31 Este 0 1011.4 -0.4 86
2017-10-04 17:00:00 22.3 16 Este 32 Este 0 1011.5 -0.7 90
2017-10-04 16:00:00 22.3 18 Este 39 Este 0 1011.6 -0.9 90
2017-10-04 15:00:00 23.1 16 Este 28 Este 0 1011.8 -0.8 85
2017-10-04 14:00:00 23 15 Este 40 Este 0 1012.2 0 86
2017-10-04 13:00:00 23.4 21 Este 37 Este 0 1012.5 0.9 84
2017-10-04 12:00:00 22.8 17 Este 30 Este 0 1012.6 1.7 86
2017-10-04 11:00:00 21.9 15 Este 36 Este 0 1012.2 1.5 91
2017-10-04 10:00:00 21.4 13 Este 22 Este 0 1011.6 1.2 91
2017-10-04 09:00:00 20.7 9 Sudeste 23 Este 0 1010.9 0.6 95
2017-10-04 08:00:00 20.2 10 Este 22 Sudeste 0 1010.7 0.4 97
2017-10-04 07:00:00 20.5 13 Este 26 Este 0 1010.4 0.2 95
2017-10-04 06:00:00 20.7 13 Este 23 Sudeste 0 1010.3 -0.5 95
2017-10-04 05:00:00 20.7 12 Este 25 Este 0 1010.3 -0.5 96
2017-10-04 04:00:00 20.4 8 Sudeste 18 Este 0 1010.2 -0.9 96
2017-10-04 03:00:00 20.4 10 Este 17 Este 0 1010.8 -0.4 97
2017-10-04 02:00:00 20.7 9 Sudeste 19 Este 0 1010.8 -0.4 96
2017-10-04 01:00:00 20.5 9 Este 16 Este 0 1011.1 0.5 96
2017-10-04 00:00:00 20.6 9 Este 19 Este 0 1011.2 1.2 96
2017-10-03 23:00:00 20.8 10 Este 18 Este 0 1011.2 1.6 95
2017-10-03 22:00:00 21.2 9 Este 21 Este 0 1010.6 1.1 94
2017-10-03 21:00:00 21.3 7 Sudeste 17 Este 0 1010 0.4 93
2017-10-03 20:00:00 21.4 8 Sudeste 18 Sudeste 0 1009.6 0.2 94
2017-10-03 19:00:00 21.5 11 Este 27 Este 0 1009.5 -0.3 93
2017-10-03 18:00:00 22 14 Este 28 Sudeste 0 1009.6 -0.6 89
2017-10-03 17:00:00 22.1 13 Nordeste 24 Nordeste 0 1009.4 -1.5 88
2017-10-03 16:00:00 22.1 14 Nordeste 24 Nordeste 0 1009.8 -1.4 89
2017-10-03 15:00:00 22.3 13 Nordeste 28 Este 0 1010.2 -1.1 88
2017-10-03 14:00:00 22.9 14 Nordeste 31 Este 0 1010.9 -0.1 84
2017-10-03 13:00:00 23 19 Este 36 Este 0 1011.2 0.4 85
2017-10-03 12:00:00 23.1 22 Este 39 Este 0 1011.3 1 85
2017-10-03 11:00:00 23 17 Este 32 Este 0 1011 1 87
2017-10-03 10:00:00 21 15 Este 34 Este 0 1010.8 1 96
2017-10-03 09:00:00 20.7 18 Este 29 Nordeste 0 1010.3 0.5 96
2017-10-03 08:00:00 20.4 14 Este 26 Este 0 1010 -0.1 96
2017-10-03 07:00:00 20.3 13 Este 30 Nordeste 0 1009.8 -0.6 96
2017-10-03 06:00:00 20.1 14 Este 28 Nordeste 0 1009.8 -0.9 96
2017-10-03 05:00:00 20.1 14 Este 27 Nordeste 0 1010.1 -0.9 96
2017-10-03 04:00:00 20.1 14 Nordeste 26 Este 0 1010.4 -0.8 96
2017-10-03 03:00:00 20.4 10 Este 23 Este 0 1010.7 -1 94
2017-10-03 02:00:00 20.1 10 Nordeste 25 Este 0 1011 -0.8 96
2017-10-03 01:00:00 20.4 12 Este 29 Nordeste 0 1011.2 -0.4 95
2017-10-03 00:00:00 20.7 15 Este 27 Este 0 1011.7 0.5 94
2017-10-02 23:00:00 20.8 15 Este 26 Sudeste 0 1011.8 1 95
2017-10-02 22:00:00 20.8 12 Este 26 Este 0 1011.6 1 96
2017-10-02 21:00:00 20.9 15 Este 23 Este 0 1011.2 1 94
2017-10-02 20:00:00 21.2 12 Sudeste 21 Este 0 1010.8 0.4 92
2017-10-02 19:00:00 21.4 10 Sudeste 36 Este 0 1010.6 0.2 91
2017-10-02 18:00:00 22.9 19 Este 31 Este 0 1010.2 -0.7 84
2017-10-02 17:00:00 23.3 14 Este 31 Nordeste 0 1010.4 -1.1 82
2017-10-02 16:00:00 22 18 Nordeste 32 Nordeste 0 1010.4 -1.2 88
2017-10-02 15:00:00 22.4 20 Nordeste 32 Este 0 1010.9 -0.7 85
2017-10-02 14:00:00 22.3 16 Nordeste 34 Nordeste 0 1011.5 -0.2 86
2017-10-02 13:00:00 22.5 18 Nordeste 31 Nordeste 0 1011.6 0.3 86
2017-10-02 12:00:00 23.4 14 Este 28 Este 0 1011.6 0.9 83
2017-10-02 11:00:00 22.9 16 Este 30 Este 0 1011.7 1.2 85
2017-10-02 10:00:00 21.3 13 Este 25 Este 0 1011.3 0.9 94
2017-10-02 09:00:00 20.6 11 Este 23 Este 0 1010.7 0.4 97
2017-10-02 08:00:00 20.3 11 Este 24 Nordeste 0 1010.5 0.2 97
2017-10-02 07:00:00 20.3 12 Este 21 Este 0 1010.4 -0.1 96
2017-10-02 06:00:00 20 11 Este 22 Este 0 1010.3 -0.5 97
2017-10-02 05:00:00 20 12 Este 21 Este 0 1010.3 -0.4 98
2017-10-02 04:00:00 20.3 12 Nordeste 20 Nordeste 0 1010.5 -0.4 97
2017-10-02 03:00:00 20.4 9 Este 21 Este 0 1010.8 0 95
2017-10-02 02:00:00 20.7 11 Este 20 Este 0 1010.7 0.2 95
2017-10-02 01:00:00 20.7 10 Este 20 Este 0 1010.9 0.8 95
2017-10-02 00:00:00 20.5 10 Este 17 Este 0 1010.8 1.2 96
2017-10-01 23:00:00 20.7 9 Sudeste 18 Este 0 1010.5 1.1 94
2017-10-01 22:00:00 20.9 11 Este 19 Sudeste 0 1010.1 1 93
2017-10-01 21:00:00 20.9 10 Este 20 Sudeste 0 1009.6 0.4 92
2017-10-01 20:00:00 21 12 Este 20 Este 0 1009.4 0.1 92
2017-10-01 19:00:00 21.5 11 Este 23 Este 0 1009.1 -0.3 88
2017-10-01 18:00:00 22.2 16 Este 25 Este 0 1009.2 -0.7 85
2017-10-01 17:00:00 23 14 Sudeste 23 Este 0 1009.3 -1 81
2017-10-01 16:00:00 22.7 11 Este 23 Este 0 1009.4 -0.6 83
2017-10-01 15:00:00 22.9 11 Sudeste 24 Este 0 1009.9 -0.2 83
2017-10-01 14:00:00 23.1 15 Este 23 Este 0 1010.3 0.6 81
2017-10-01 13:00:00 22.6 12 Sudeste 20 Sur 0 1010 0.6 83
2017-10-01 12:00:00 22.2 10 Sudeste 15 Sudeste 0 1010.1 1.3 86
2017-10-01 11:00:00 21.4 11 Sudeste 20 Sudeste 0 1009.7 1.3 89
2017-10-01 10:00:00 20.9 10 Sudeste 18 Sudeste 0 1009.4 1.9 92
2017-10-01 09:00:00 20 9 Sur 15 Sur 0 1008.8 1.3 97
2017-10-01 08:00:00 19.8 7 Sudeste 12 Este 0 1008.4 0.7 98
2017-10-01 07:00:00 19.9 8 Sur 13 Sur 0 1007.5 -0.6 98
2017-10-01 06:00:00 19.7 6 Sudeste 13 Este 0 1007.5 -0.8 98
2017-10-01 05:00:00 19.5 4 Nordeste 7 Nordeste 0 1007.7 -0.8 98
2017-10-01 04:00:00 20.1 3 Nordeste 10 Sudeste 0 1008.1 -0.6 96
2017-10-01 03:00:00 20.1 5 Sudeste 8 Sudeste 0 1008.3 -0.5 96
2017-10-01 02:00:00 19.9 3 Sur 11 Sur 0 1008.5 -0.4 95
2017-10-01 01:00:00 20.2 4 Sur 9 Sudoeste 0 1008.7 -0.1 95
2017-10-01 00:00:00 20.4 5 Sur 13 Sur 0 1008.8 0.5 94
2017-09-30 23:00:00 20.6 7 Sur 10 Sur 0 1008.9 0.9 92
2017-09-30 22:00:00 20.8 5 Sur 9 Sur 0 1008.8 0.9 91
2017-09-30 21:00:00 20.8 6 Sur 13 Sudeste 0 1008.3 0.1 90
2017-09-30 20:00:00 21.2 8 Sur 14 Sur 0 1008 -0.6 89
2017-09-30 19:00:00 21.6 10 Sudeste 19 Sudeste 0 1007.9 -1 88
2017-09-30 18:00:00 22 11 Sudeste 20 Sudeste 0 1008.2 -1.2 85
2017-09-30 17:00:00 22.7 14 Sudeste 21 Sur 0 1008.6 -1.4 82
2017-09-30 16:00:00 22.7 14 Sudeste 22 Sudeste 0 1008.9 -1.5 81
2017-09-30 15:00:00 23.2 13 Sudeste 25 Sur 0 1009.4 -1.5 79
2017-09-30 14:00:00 23 15 Sudeste 24 Sudeste 0 1010 -0.6 78
2017-09-30 13:00:00 23.2 17 Sudeste 26 Sudeste 0 1010.4 -0.3 78
2017-09-30 12:00:00 23.6 14 Este 24 Este 0 1010.9 0.7 78
2017-09-30 11:00:00 22.9 15 Sudeste 25 Sudeste 0 1010.6 0.6 84
2017-09-30 10:00:00 21.5 10 Este 19 Este 0 1010.7 0.7 92
2017-09-30 09:00:00 20.4 11 Este 21 Este 0 1010.2 0.2 96
2017-09-30 08:00:00 20.3 10 Este 21 Sudeste 0 1010 0 95
2017-09-30 07:00:00 20.3 9 Este 25 Este 0 1010 -0.4 95
2017-09-30 06:00:00 20.5 12 Este 23 Este 0 1010 -0.8 96
2017-09-30 05:00:00 20.5 14 Este 24 Este 0 1010 -1 96
2017-09-30 04:00:00 20.6 11 Este 21 Este 0 1010.4 -0.6 97
2017-09-30 03:00:00 20.6 12 Este 21 Este 0 1010.8 -0.4 97
2017-09-30 02:00:00 20.5 8 Este 17 Este 0 1011 -0.3 97
2017-09-30 01:00:00 20.7 10 Este 20 Este 0 1011 0.1 96
2017-09-30 00:00:00 20.7 6 Este 21 Este 0 1011.2 0.7 95
2017-09-29 23:00:00 20.6 6 Este 19 Este 0 1011.3 1.2 95
2017-09-29 22:00:00 20.8 9 Este 19 Este 0 1010.9 0.9 94
2017-09-29 21:00:00 21 11 Este 18 Este 0 1010.5 0.6 94
2017-09-29 20:00:00 21.3 10 Este 24 Este 0 1010.1 -0.1 92
2017-09-29 19:00:00 22.2 13 Este 27 Este 0 1010 -0.7 86
2017-09-29 18:00:00 23.2 15 Este 30 Este 0 1009.9 -1.2 80
2017-09-29 17:00:00 23.5 20 Este 31 Nordeste 0 1010.2 -1.5 78
2017-09-29 16:00:00 23.4 17 Nordeste 31 Este 0 1010.7 -1.4 79
2017-09-29 15:00:00 22.4 19 Nordeste 29 Nordeste 0 1011.1 -1.3 84
2017-09-29 14:00:00 22 15 Nordeste 29 Este 0 1011.7 -0.4 87
2017-09-29 13:00:00 21.5 15 Nordeste 29 Este 0 1012.1 0.4 88
2017-09-29 12:00:00 21.4 16 Nordeste 27 Nordeste 0 1012.4 1.3 90
2017-09-29 11:00:00 21 15 Nordeste 26 Este 0 1012.1 1.4 93
2017-09-29 10:00:00 20.5 14 Nordeste 26 Este 0 1011.7 -- 96
2017-09-29 09:00:00 20.3 12 Nordeste 21 Este 0 1011.1 -- 98
2017-09-29 08:00:00 20 11 Nordeste 22 Nordeste 0 1010.7 -- 97
2017-09-29 07:00:00 20 12 Este 23 Este 0 -- -- 97
2017-09-29 06:00:00 20 12 Este 21 Este 0 -- -- 96
2017-09-29 05:00:00 19.9 12 Este 21 Este 0 -- -- 97
2017-09-29 04:00:00 20.1 12 Nordeste 22 Este 0 -- -- 95
2017-09-29 03:00:00 19.7 13 Este 24 Nordeste 0 -- -- 94
2017-09-29 02:00:00 19.8 10 Nordeste 22 Nordeste 0 -- -- 93
2017-09-29 01:00:00 19.8 9 Nordeste 23 Nordeste 0 -- -- 93
2017-09-29 00:00:00 20.1 10 Este 21 Nordeste 0 -- -- 95
2017-09-28 23:00:00 20.8 9 Nordeste 19 Este 0 -- -- 94
2017-09-28 22:00:00 21 11 Este 21 Este 0 -- -- 94
2017-09-28 21:00:00 21.3 13 Sudeste 23 Este 0 -- -- 92
2017-09-28 20:00:00 21.5 13 Este 26 Este 0 1010.8 0.1 91
2017-09-28 19:00:00 22.1 18 Este 33 Sudeste 0 1010.7 -0.2 88
2017-09-28 18:00:00 22.4 18 Este 34 Nordeste 0 1010.6 -0.8 87
2017-09-28 17:00:00 21.7 11 Nordeste 21 Este 0 1010.7 -0.9 88
2017-09-28 16:00:00 21.2 12 Nordeste 23 Nordeste 0 1010.9 -0.9 89
2017-09-28 15:00:00 21.8 15 Nordeste 28 Este 0 1011.4 -0.4 89
2017-09-28 14:00:00 22.8 12 Este 34 Este 0 1011.6 -0.1 85
2017-09-28 13:00:00 22.7 18 Este 35 Este 0 1011.8 0.4 88
2017-09-28 12:00:00 22.4 18 Este 36 Este 0 1011.8 0.8 92
2017-09-28 11:00:00 22.2 16 Este 28 Este 0 1011.7 1.2 92
2017-09-28 10:00:00 21.3 16 Este 26 Este 0 1011.4 1.2 95
2017-09-28 09:00:00 20.2 12 Nordeste 21 Nordeste 0 1011 1 99
2017-09-28 08:00:00 20.1 9 Nordeste 23 Nordeste 0 1010.5 0.6 99
2017-09-28 07:00:00 20.3 12 Nordeste 29 Este 0 1010.2 -0.1 99
2017-09-28 06:00:00 20 14 Nordeste 24 Este 0.8 1010 -0.6 99
2017-09-28 05:00:00 19.9 10 Nordeste 19 Nordeste 0 1009.9 -0.6 98
2017-09-28 04:00:00 20.2 12 Este 22 Este 0 1010.3 -0.3 98
2017-09-28 03:00:00 20.3 12 Nordeste 21 Este 0 1010.6 -0.1 98
2017-09-28 02:00:00 20.1 10 Nordeste 23 Este 0 1010.5 -0.1 98
2017-09-28 01:00:00 20.4 12 Este 21 Este 0 1010.6 0.3 97
2017-09-28 00:00:00 20.5 13 Nordeste 21 Nordeste 0 1010.7 0.8 96
2017-09-27 23:00:00 20.3 13 Este 21 Este 0 1010.6 1.2 97
2017-09-27 22:00:00 20.6 8 Nordeste 13 Este 0 1010.3 1.1 96
2017-09-27 21:00:00 21.4 8 Este 17 Sudeste 0 1009.9 1.1 95
2017-09-27 20:00:00 21.2 10 Este 23 Nordeste 0 1009.4 0.6 93
2017-09-27 19:00:00 21 12 Nordeste 24 Nordeste 0 1009.2 0.3 93
2017-09-27 18:00:00 20.8 13 Nordeste 27 Este 0 1008.8 -0.5 92
2017-09-27 17:00:00 20.8 14 Nordeste 25 Este 0 1008.8 -1 93
2017-09-27 16:00:00 21.1 14 Nordeste 29 Nordeste 0 1008.9 -1.1 93
2017-09-27 15:00:00 20.9 13 Nordeste 30 Nordeste 0 1009.3 -0.9 95
2017-09-27 14:00:00 21.3 17 Nordeste 27 Este 0 1009.8 -0.4 95
2017-09-27 13:00:00 20.6 18 Nordeste 31 Nordeste 0 1010 -0.1 98
2017-09-27 12:00:00 20.7 13 Nordeste 22 Este 0 1010.2 0.2 99
2017-09-27 11:00:00 20.6 7 Nordeste 14 Nordeste 0 1010.2 0.6 98
2017-09-27 10:00:00 20.1 6 Nordeste 10 Nordeste 0.2 1010.1 0.8 97
2017-09-27 09:00:00 19.5 4 Sudoeste 12 Norte 0 1010 0.7 99
2017-09-27 08:00:00 19.8 8 Nordeste 16 Este 0.4 1009.6 0.4 99
2017-09-27 07:00:00 20.1 6 Norte 10 Nordeste 0 1009.3 0.2 98
2017-09-27 06:00:00 20.1 4 Norte 10 Norte 0 1009.3 0.1 97
2017-09-27 05:00:00 20.1 5 Norte 13 Norte 0 1009.2 0 96
2017-09-27 04:00:00 20 8 Norte 15 Norte 0 1009.1 -0.2 97
2017-09-27 03:00:00 19.7 8 Norte 14 Norte 0 1009.2 -0.3 98
2017-09-27 02:00:00 19 7 Norte 15 Norte 0 1009.2 -0.1 97
2017-09-27 01:00:00 19.1 7 Nordeste 12 Nordeste 0 1009.3 0.3 94
2017-09-27 00:00:00 20.5 0 Calma 8 Sudoeste 0 1009.5 1.5 68
2017-09-26 23:00:00 21 7 Oeste 9 Sudoeste 0 1009.3 1.9 65
2017-09-26 22:00:00 21.8 4 Nordeste 10 Nordeste 0 1009 2.3 60
2017-09-26 21:00:00 23.4 0 Calma 7 Este 0 1008 1.5 50
2017-09-26 20:00:00 25.2 6 Este 16 Norte 0 1007.4 0.6 45
2017-09-26 19:00:00 27.3 7 Oeste 28 Oeste 0 1006.7 -0.4 27
2017-09-26 18:00:00 28 12 Noroeste 27 Noroeste 0 1006.5 -1.4 37
2017-09-26 17:00:00 29.1 10 Oeste 25 Noroeste 0 1006.8 -1.4 35
2017-09-26 16:00:00 28.6 12 Noroeste 20 Noroeste 0 1007.1 -1.3 36
2017-09-26 15:00:00 28.3 11 Sudoeste 24 Sudoeste 0 1007.9 -0.4 38
2017-09-26 14:00:00 26.5 10 Norte 20 Norte 0 1008.2 0.2 57
2017-09-26 13:00:00 26.3 12 Noroeste 30 Noroeste 0 1008.4 0.5 59
2017-09-26 12:00:00 26.8 9 Norte 30 Sudoeste 0 1008.3 0.5 49
2017-09-26 11:00:00 26.6 8 Sur 19 Sudeste 0 1008 0.4 34
2017-09-26 10:00:00 25.1 4 Este 9 Sudeste 0 1007.9 0.6 48
2017-09-26 09:00:00 22.3 3 Sudeste 9 Sudeste 0 1007.8 0.5 58
2017-09-26 08:00:00 20.7 3 Sudoeste 7 Sudoeste 0 1007.6 0.3 60
2017-09-26 07:00:00 21.8 2 Nordeste 19 Sur 0 1007.3 -0.2 57
2017-09-26 06:00:00 22.7 9 Sur 16 Sur 0 1007.3 -0.6 52
2017-09-26 05:00:00 23.4 8 Sur 14 Sudeste 0 1007.3 -0.8 47
2017-09-26 04:00:00 24.4 6 Sudeste 29 Oeste 0 1007.5 -0.5 44
2017-09-26 03:00:00 25.8 13 Oeste 31 Noroeste 0 1007.9 -0.4 40
2017-09-26 02:00:00 26 7 Sudoeste 29 Noroeste 0 1008.1 -0.4 36
2017-09-26 01:00:00 26.5 17 Noroeste 35 Noroeste 0 1008 -0.1 34
2017-09-26 00:00:00 25 5 Sudoeste 14 Sudoeste 0 1008.3 0.4 39
2017-09-25 23:00:00 25.9 9 Noroeste 21 Noroeste 0 1008.5 0.6 32
2017-09-25 22:00:00 26.5 6 Oeste 23 Oeste 0 1008.1 0 35
2017-09-25 21:00:00 26.7 8 Oeste 25 Noroeste 0 1007.9 -0.3 35
2017-09-25 20:00:00 26.5 4 Noroeste 23 Noroeste 0 1007.9 -0.7 39
2017-09-25 19:00:00 26 3 Este 10 Norte 0 1008.1 -1 60
2017-09-25 18:00:00 26.3 5 Sudeste 11 Norte 0 1008.2 -1.3 62
2017-09-25 17:00:00 26.4 5 Sudeste 12 Nordeste 0 1008.6 -1.2 62
2017-09-25 16:00:00 26 7 Sudeste 13 Sudeste 0 1009.1 -1.2 63
2017-09-25 15:00:00 25.8 9 Sur 14 Sur 0 1009.5 -1.5 63
2017-09-25 14:00:00 26.1 6 Sudeste 11 Sudeste 0 1009.8 -1.1 64
2017-09-25 13:00:00 25.3 6 Sudeste 12 Sudeste 0 1010.3 -0.2 67
2017-09-25 12:00:00 24.1 6 Este 10 Sudeste 0 1011 1.1 73
2017-09-25 11:00:00 23.3 6 Este 13 Sur 0 1010.9 1.2 76
2017-09-25 10:00:00 22.2 9 Sur 14 Sur 0 1010.5 0.9 81
2017-09-25 09:00:00 20.3 7 Sudoeste 13 Sudoeste 0 1009.9 0.4 91
2017-09-25 08:00:00 19.5 8 Sudoeste 12 Sudoeste 0 1009.7 -0.1 94
2017-09-25 07:00:00 19.4 6 Sudoeste 10 Sudoeste 0 1009.6 -0.5 96
2017-09-25 06:00:00 19.3 5 Sudoeste 8 Sudoeste 0 1009.5 -0.9 99
2017-09-25 05:00:00 19.4 4 Norte 8 Norte 0 1009.8 -0.7 99
2017-09-25 04:00:00 19.4 5 Norte 8 Norte 0 1010.1 -0.4 99
2017-09-25 03:00:00 19.4 4 Norte 7 Norte 0 1010.4 -0.4 98
2017-09-25 02:00:00 19.6 3 Norte 9 Nordeste 0 1010.5 -0.4 97
2017-09-25 01:00:00 21.1 5 Sudeste 12 Sur 0 1010.5 -0.2 92
2017-09-25 00:00:00 21.2 8 Sur 12 Sur 0 1010.8 0.5 92
2017-09-24 23:00:00 21.3 7 Sudeste 13 Sur 0 1010.9 0.7 93
2017-09-24 22:00:00 21.5 7 Sudeste 12 Sudeste 0 1010.7 0.6 90
2017-09-24 21:00:00 21.7 8 Sudeste 15 Sur 0 1010.3 0.1 89
2017-09-24 20:00:00 21.8 8 Sur 15 Sudeste 0 1010.2 -0.3 91
2017-09-24 19:00:00 22.2 9 Sur 17 Sur 0 1010.1 -0.6 90
2017-09-24 18:00:00 22.3 9 Sur 19 Sudeste 0 1010.2 -0.7 87
2017-09-24 17:00:00 23.2 13 Este 22 Este 0 1010.5 -0.7 83
2017-09-24 16:00:00 24.6 15 Este 26 Sudeste 0 1010.7 -0.6 77
2017-09-24 15:00:00 24.9 15 Sudeste 26 Nordeste 0 1010.9 -0.5 75
2017-09-24 14:00:00 23.7 15 Este 30 Este 0 1011.2 0.1 81
2017-09-24 13:00:00 23.8 13 Este 25 Este 0 1011.3 0.7 82
2017-09-24 12:00:00 22.6 15 Este 23 Sudeste 0 1011.4 1.2 87
2017-09-24 11:00:00 21.6 10 Nordeste 17 Nordeste 0 1011.1 1.1 92
2017-09-24 10:00:00 21.3 10 Nordeste 21 Este 0 1010.6 1.1 93
2017-09-24 09:00:00 20.9 13 Este 23 Este 0 1010.2 0.7 96
2017-09-24 08:00:00 20.8 10 Este 19 Este 0 1010 0.4 95
2017-09-24 07:00:00 20.8 9 Este 18 Este 0 1009.5 -0.2 94
2017-09-24 06:00:00 20.7 9 Sudeste 22 Sudeste 0 1009.5 -0.8 94
2017-09-24 05:00:00 20.8 8 Este 17 Este 0 1009.6 -0.8 96
2017-09-24 04:00:00 20.8 9 Este 18 Nordeste 0 1009.7 -0.7 96
2017-09-24 03:00:00 21.1 9 Nordeste 21 Este 0 1010.3 0 95
2017-09-24 02:00:00 21.4 12 Este 21 Este 0 1010.4 0.4 95
2017-09-24 01:00:00 21.5 13 Este 19 Sudeste 0 1010.4 0.9 96
2017-09-24 00:00:00 21.6 12 Sudeste 21 Sudeste 0 1010.3 1.4 93
2017-09-23 23:00:00 21.6 8 Sudeste 15 Sudeste 0 1010 1.6 94
2017-09-23 22:00:00 21.6 9 Sudeste 13 Sudeste 0 1009.5 1.2 95
2017-09-23 21:00:00 21.7 8 Sur 17 Sur 0 1008.9 0.5 93
2017-09-23 20:00:00 21.8 10 Sur 17 Sur 0 1008.4 -0.1 91
2017-09-23 19:00:00 22.1 10 Sur 17 Sudeste 0 1008.3 -0.4 89
2017-09-23 18:00:00 22.4 12 Sudeste 22 Este 0 1008.4 -0.6 85
2017-09-23 17:00:00 23.1 14 Este 27 Este 0 1008.5 -0.7 80
2017-09-23 16:00:00 23.6 15 Este 28 Este 0 1008.7 -0.4 78
2017-09-23 15:00:00 23.5 15 Este 29 Este 0 1009 -0.1 77
2017-09-23 14:00:00 23 15 Este 29 Este 0 1009.2 0.2 81
2017-09-23 13:00:00 22.6 12 Este 28 Este 0 1009.1 0.6 86
2017-09-23 12:00:00 22.1 15 Este 26 Este 0 1009.1 1.1 87
2017-09-23 11:00:00 20 5 Norte 10 Norte 0 1009 1.4 94
2017-09-23 10:00:00 20 5 Nordeste 21 Este 0 1008.5 1.2 95
2017-09-23 09:00:00 21.5 7 Este 18 Sudeste 0 1008 0.8 91
2017-09-23 08:00:00 21.4 11 Este 23 Este 0 1007.6 0.5 91
2017-09-23 07:00:00 21.3 11 Este 22 Este 0 1007.3 0 92
2017-09-23 06:00:00 21.3 14 Este 23 Este 0 1007.2 -0.6 94
2017-09-23 05:00:00 21.1 11 Este 22 Norte 0 1007.1 -0.8 95
2017-09-23 04:00:00 20.9 11 Nordeste 23 Nordeste 0 1007.3 -0.7 96
2017-09-23 03:00:00 20.7 9 Nordeste 22 Nordeste 0 1007.8 -0.4 96
2017-09-23 02:00:00 20.4 12 Nordeste 25 Este 0 1007.9 -0.1 97
2017-09-23 01:00:00 20.5 14 Nordeste 21 Nordeste 0 1008 0.4 96
2017-09-23 00:00:00 21 12 Este 24 Este 0 1008.2 1.1 96